Time;durP1;ratioP1;P1;durP2;ratioP2;P2;SDS_P1;SDS_P2;PMS_P1;PMS_P2;Temp;Humidity;BMP_temperature;BMP_pressure;BME280_temperature;BME280_humidity;BME280_pressure;Samples;Min_cycle;Max_cycle;Signal;HPM_P1;HPM_P2
2021/05/26 00:00:30;;;;;;;5.43;0.80;;;11.20;99.90;;;;;;5053442;28;20025;-78
2021/05/26 00:02:56;;;;;;;4.00;0.88;;;11.30;99.90;;;;;;5035612;28;20020;-78
2021/05/26 00:05:22;;;;;;;3.30;1.00;;;11.30;99.90;;;;;;5035615;28;20024;-78
2021/05/26 00:07:48;;;;;;;5.88;1.10;;;11.30;99.90;;;;;;5035478;28;20400;-78
2021/05/26 00:10:14;;;;;;;4.35;1.20;;;11.40;99.90;;;;;;5035433;28;20036;-78
2021/05/26 00:12:40;;;;;;;4.60;0.73;;;11.40;99.90;;;;;;5035491;28;20021;-78
2021/05/26 00:15:07;;;;;;;2.85;0.80;;;11.40;99.90;;;;;;5053337;28;20104;-79
2021/05/26 00:17:33;;;;;;;3.42;0.70;;;11.40;99.90;;;;;;5053265;28;20100;-78
2021/05/26 00:20:00;;;;;;;3.22;0.85;;;11.40;99.90;;;;;;5053277;28;20151;-78
2021/05/26 00:22:26;;;;;;;5.75;1.08;;;11.40;99.90;;;;;;5035381;28;20090;-78
2021/05/26 00:24:51;;;;;;;4.63;0.80;;;11.50;99.90;;;;;;5053174;28;20031;-78
2021/05/26 00:27:17;;;;;;;3.53;0.90;;;11.50;99.90;;;;;;5035166;28;20112;-78
2021/05/26 00:29:44;;;;;;;1.95;0.93;;;11.50;99.90;;;;;;5053135;28;20033;-78
2021/05/26 00:32:09;;;;;;;2.08;0.88;;;11.60;99.90;;;;;;5053122;28;20017;-78
2021/05/26 00:34:35;;;;;;;4.00;1.05;;;11.60;99.90;;;;;;5035244;28;20040;-78
2021/05/26 00:37:01;;;;;;;3.13;0.75;;;11.60;99.90;;;;;;5035349;28;20025;-78
2021/05/26 00:39:27;;;;;;;2.28;0.70;;;11.40;99.90;;;;;;5053110;28;20380;-78
2021/05/26 00:41:52;;;;;;;2.20;0.75;;;11.50;99.90;;;;;;5053061;28;20035;-78
2021/05/26 00:44:18;;;;;;;2.55;0.90;;;11.60;99.90;;;;;;5035185;28;20075;-77
2021/05/26 00:46:45;;;;;;;6.28;1.20;;;11.50;99.90;;;;;;5035102;28;20078;-78
2021/05/26 00:49:11;;;;;;;3.53;0.80;;;11.40;99.90;;;;;;5053039;28;20104;-78
2021/05/26 00:51:38;;;;;;;4.93;1.33;;;11.30;99.90;;;;;;5034944;28;20552;-78
2021/05/26 00:54:04;;;;;;;3.10;0.90;;;11.40;99.90;;;;;;5052937;28;20032;-78
2021/05/26 00:56:32;;;;;;;6.50;1.10;;;11.10;99.90;;;;;;5034967;28;20025;-78
2021/05/26 00:58:58;;;;;;;5.50;1.15;;;11.00;99.90;;;;;;5052844;28;20052;-77
2021/05/26 01:01:23;;;;;;;3.80;1.08;;;10.90;99.90;;;;;;5035016;28;20056;-78
2021/05/26 01:03:49;;;;;;;5.90;1.30;;;10.90;99.90;;;;;;5034984;28;20062;-77
2021/05/26 01:06:15;;;;;;;4.20;1.00;;;10.80;99.90;;;;;;5034901;28;20472;-78
2021/05/26 01:08:40;;;;;;;5.00;1.02;;;10.80;99.90;;;;;;5035434;28;20029;-79
2021/05/26 01:11:08;;;;;;;5.00;0.90;;;10.90;99.90;;;;;;5052712;28;20029;-78
2021/05/26 01:13:33;;;;;;;3.22;0.88;;;10.70;99.90;;;;;;5034896;28;20033;-78
2021/05/26 01:16:00;;;;;;;5.97;1.05;;;10.70;99.90;;;;;;5052902;28;20211;-79
2021/05/26 01:18:27;;;;;;;4.35;0.80;;;;;;;;;;5052671;28;20025;-79
2021/05/26 01:20:56;;;;;;;8.30;1.17;;;10.10;99.90;;;;;;5052678;28;20043;-79
2021/05/26 01:23:21;;;;;;;5.47;1.00;;;10.10;99.90;;;;;;5052635;28;20469;-78
2021/05/26 01:25:53;;;;;;;6.38;1.10;;;10.20;99.90;;;;;;5052891;28;20017;-79
2021/05/26 01:28:20;;;;;;;4.20;0.93;;;10.20;99.90;;;;;;5052914;28;20052;-79
2021/05/26 01:30:48;;;;;;;5.97;1.27;;;10.20;99.90;;;;;;5052575;28;20051;-79
2021/05/26 01:33:14;;;;;;;3.70;1.17;;;10.10;99.90;;;;;;5034817;28;20415;-78
2021/05/26 01:35:41;;;;;;;4.90;0.88;;;10.10;99.90;;;;;;5034697;28;20044;-79
2021/05/26 01:38:12;;;;;;;5.93;1.10;;;10.10;99.90;;;;;;5052441;28;20025;-79
2021/05/26 01:40:37;;;;;;;5.28;0.93;;;10.20;99.90;;;;;;5037437;28;20480;-79
2021/05/26 01:43:03;;;;;;;4.07;1.10;;;10.30;99.90;;;;;;5038192;28;20021;-79
2021/05/26 01:45:29;;;;;;;4.57;1.08;;;10.30;99.90;;;;;;5055993;28;20028;-79
2021/05/26 01:47:55;;;;;;;4.93;0.98;;;10.30;99.90;;;;;;5055942;28;20029;-79
2021/05/26 01:50:21;;;;;;;3.03;1.05;;;10.20;99.90;;;;;;5055803;28;20063;-79
2021/05/26 01:52:51;;;;;;;5.07;1.02;;;10.30;99.90;;;;;;5055939;28;20468;-78
2021/05/26 01:55:17;;;;;;;5.63;1.00;;;10.30;99.90;;;;;;5055901;28;20437;-78
2021/05/26 01:57:44;;;;;;;1.38;0.63;;;10.20;99.90;;;;;;5055972;28;20030;-79
2021/05/26 02:00:13;;;;;;;3.63;0.88;;;10.20;99.90;;;;;;5055762;28;20385;-79
2021/05/26 02:02:39;;;;;;;2.38;1.10;;;10.30;99.90;;;;;;5037732;28;20021;-79
2021/05/26 02:05:08;;;;;;;2.92;0.70;;;10.40;99.90;;;;;;5037726;28;20021;-79
2021/05/26 02:07:34;;;;;;;3.92;1.00;;;10.40;99.90;;;;;;5037745;28;20033;-79
2021/05/26 02:10:00;;;;;;;4.70;1.38;;;10.40;99.90;;;;;;5055828;28;20087;-79
2021/05/26 02:12:32;;;;;;;4.07;0.73;;;10.50;99.90;;;;;;5055544;28;20029;-79
2021/05/26 02:14:58;;;;;;;3.05;1.13;;;10.50;99.90;;;;;;5037611;28;20102;-79
2021/05/26 02:17:24;;;;;;;5.70;1.00;;;10.60;99.90;;;;;;5037485;28;20054;-78
2021/05/26 02:19:50;;;;;;;4.75;1.05;;;10.50;99.90;;;;;;5055631;28;20468;-78
2021/05/26 02:22:16;;;;;;;5.45;1.00;;;10.30;99.90;;;;;;5055330;28;20530;-78
2021/05/26 02:24:43;;;;;;;3.38;0.93;;;10.10;99.90;;;;;;5037406;28;20020;-78
2021/05/26 02:27:09;;;;;;;2.80;1.00;;;10.20;99.90;;;;;;5037371;28;20024;-78
2021/05/26 02:29:35;;;;;;;3.58;0.90;;;10.30;99.90;;;;;;5037295;28;20031;-79
2021/05/26 02:32:02;;;;;;;5.20;0.95;;;10.40;99.90;;;;;;5055100;28;20025;-79
2021/05/26 02:34:27;;;;;;;4.47;1.10;;;10.40;99.90;;;;;;5037194;28;20029;-79
2021/05/26 02:36:53;;;;;;;4.35;1.08;;;10.30;99.90;;;;;;5037087;28;20029;-79
2021/05/26 02:39:19;;;;;;;2.47;0.80;;;10.10;99.90;;;;;;5037158;28;20024;-79
2021/05/26 02:41:44;;;;;;;3.75;0.95;;;10.10;99.90;;;;;;5054921;28;20032;-79
2021/05/26 02:44:11;;;;;;;5.80;0.98;;;10.00;99.90;;;;;;5055172;28;20082;-80
2021/05/26 02:46:37;;;;;;;3.80;0.80;;;10.00;99.90;;;;;;5054752;28;20055;-79
2021/05/26 02:49:05;;;;;;;3.22;0.98;;;10.00;99.90;;;;;;5054804;28;20029;-80
2021/05/26 02:51:31;;;;;;;3.22;1.20;;;10.20;99.90;;;;;;5035559;28;20055;-80
2021/05/26 02:53:57;;;;;;;8.05;1.48;;;10.30;99.90;;;;;;5036784;28;20443;-79
2021/05/26 02:56:23;;;;;;;3.08;1.02;;;10.30;99.90;;;;;;5054615;28;20061;-79
2021/05/26 02:58:49;;;;;;;4.93;1.02;;;10.50;99.90;;;;;;5054634;28;20423;-80
2021/05/26 03:01:14;;;;;;;6.10;1.35;;;10.40;99.90;;;;;;5054570;28;20021;-79
2021/05/26 03:03:40;;;;;;;3.40;0.80;;;10.20;99.90;;;;;;5036680;28;20135;-79
2021/05/26 03:06:06;;;;;;;6.28;1.20;;;10.10;99.90;;;;;;5036589;28;20107;-79
2021/05/26 03:08:32;;;;;;;2.88;1.13;;;9.90;99.90;;;;;;5036529;28;20036;-79
2021/05/26 03:10:58;;;;;;;4.28;0.93;;;10.00;99.90;;;;;;5036570;28;20051;-80
2021/05/26 03:13:25;;;;;;;4.90;0.90;;;10.10;99.90;;;;;;5054363;28;20017;-79
2021/05/26 03:15:52;;;;;;;3.00;1.00;;;10.30;99.90;;;;;;5036428;28;20025;-79
2021/05/26 03:18:19;;;;;;;4.25;0.93;;;10.20;99.90;;;;;;5036315;28;20112;-79
2021/05/26 03:20:45;;;;;;;5.78;1.10;;;10.10;99.90;;;;;;5020064;28;20439;-80
2021/05/26 03:23:11;;;;;;;4.97;1.20;;;10.00;99.90;;;;;;5036306;28;20482;-79
2021/05/26 03:25:37;;;;;;;7.03;1.38;;;9.80;99.90;;;;;;5036440;28;20017;-79
2021/05/26 03:28:03;;;;;;;5.57;1.35;;;9.80;99.90;;;;;;5036180;28;20440;-79
2021/05/26 03:30:29;;;;;;;4.72;1.17;;;9.90;99.90;;;;;;5053997;28;20029;-79
2021/05/26 03:32:55;;;;;;;3.75;1.20;;;10.00;99.90;;;;;;5036289;28;20037;-80
2021/05/26 03:35:21;;;;;;;5.45;1.20;;;9.90;99.90;;;;;;5036028;28;20029;-80
2021/05/26 03:37:48;;;;;;;4.18;0.88;;;9.90;99.90;;;;;;5053800;28;20460;-80
2021/05/26 03:40:15;;;;;;;5.82;1.00;;;10.00;99.90;;;;;;5053832;28;20017;-79
2021/05/26 03:42:41;;;;;;;8.00;1.10;;;10.10;99.90;;;;;;5053843;28;20025;-79
2021/05/26 03:45:09;;;;;;;3.10;0.88;;;10.10;99.90;;;;;;5035867;28;20028;-79
2021/05/26 03:47:36;;;;;;;4.05;1.10;;;10.20;99.90;;;;;;5053621;28;20048;-80
2021/05/26 03:50:03;;;;;;;7.05;1.10;;;10.30;99.90;;;;;;5035860;28;20488;-79
2021/05/26 03:52:28;;;;;;;5.22;0.95;;;10.00;99.90;;;;;;5053712;28;20084;-80
2021/05/26 03:54:54;;;;;;;4.05;1.15;;;10.00;99.90;;;;;;5053630;28;20504;-80
2021/05/26 03:57:20;;;;;;;4.85;0.80;;;10.10;99.90;;;;;;5035640;28;20029;-80
2021/05/26 03:59:46;;;;;;;8.18;2.25;;;10.00;99.90;;;;;;5035683;28;20029;-79
2021/05/26 04:02:11;;;;;;;3.35;1.00;;;9.80;99.90;;;;;;5035358;28;20048;-79
2021/05/26 04:04:39;;;;;;;4.32;1.10;;;9.60;99.90;;;;;;5054053;28;20075;-79
2021/05/26 04:07:05;;;;;;;7.47;1.05;;;9.70;99.90;;;;;;5035490;28;20028;-79
2021/05/26 04:09:31;;;;;;;9.90;1.35;;;9.80;99.90;;;;;;5035512;28;20033;-80
2021/05/26 04:11:57;;;;;;;14.27;1.60;;;9.80;99.90;;;;;;5035477;28;20031;-80
2021/05/26 04:14:23;;;;;;;6.22;1.27;;;9.70;99.90;;;;;;5035466;28;20025;-80
2021/05/26 04:16:48;;;;;;;5.72;1.13;;;9.70;99.90;;;;;;5035344;28;20120;-80
2021/05/26 04:19:14;;;;;;;6.18;1.45;;;9.70;99.90;;;;;;5035416;28;20021;-80
2021/05/26 04:21:40;;;;;;;3.88;1.20;;;9.80;99.90;;;;;;5035298;28;20043;-79
2021/05/26 04:24:06;;;;;;;3.42;1.25;;;9.70;99.90;;;;;;5053256;28;20029;-80
2021/05/26 04:26:32;;;;;;;8.40;1.40;;;9.80;99.90;;;;;;5053471;28;20111;-80
2021/05/26 04:28:57;;;;;;;3.60;1.25;;;9.70;99.90;;;;;;5035316;28;20061;-80
2021/05/26 04:31:23;;;;;;;4.35;1.33;;;9.70;99.90;;;;;;5035282;28;20025;-80
2021/05/26 04:33:49;;;;;;;4.00;1.17;;;9.90;99.90;;;;;;5035198;28;20538;-80
2021/05/26 04:36:14;;;;;;;5.35;1.20;;;10.10;99.90;;;;;;5035220;28;20067;-80
2021/05/26 04:38:40;;;;;;;4.75;1.00;;;10.20;99.90;;;;;;5053603;28;20028;-80
2021/05/26 04:41:06;;;;;;;5.28;1.30;;;10.20;99.90;;;;;;5035125;28;20483;-80
2021/05/26 04:43:32;;;;;;;6.60;1.40;;;10.20;99.90;;;;;;5035128;28;20032;-79
2021/05/26 04:46:00;;;;;;;4.68;1.10;;;9.90;99.90;;;;;;5035087;28;20021;-79
2021/05/26 04:48:29;;;;;;;6.78;1.42;;;9.90;99.90;;;;;;5035127;28;20079;-80
2021/05/26 04:50:55;;;;;;;4.43;1.27;;;9.90;99.90;;;;;;5052713;28;20068;-80
2021/05/26 04:53:21;;;;;;;6.35;1.60;;;9.80;99.90;;;;;;5035039;28;20110;-80
2021/05/26 04:55:47;;;;;;;4.50;1.40;;;9.80;99.90;;;;;;5052916;28;20489;-80
2021/05/26 04:58:13;;;;;;;5.93;1.42;;;10.10;99.90;;;;;;5034968;28;20107;-81
2021/05/26 05:00:39;;;;;;;4.45;1.38;;;10.20;99.90;;;;;;5034940;28;20485;-80
2021/05/26 05:03:05;;;;;;;5.03;1.33;;;9.90;99.90;;;;;;5052764;28;20545;-80
2021/05/26 05:05:32;;;;;;;6.63;1.40;;;9.90;99.90;;;;;;5053061;28;20052;-80
2021/05/26 05:07:59;;;;;;;5.57;1.40;;;9.90;99.90;;;;;;5034912;28;20028;-80
2021/05/26 05:10:25;;;;;;;6.25;1.70;;;9.60;99.90;;;;;;5034912;28;20029;-80
2021/05/26 05:12:50;;;;;;;5.70;1.35;;;9.50;99.90;;;;;;5053044;28;20028;-81
2021/05/26 05:15:16;;;;;;;6.60;1.45;;;9.80;99.90;;;;;;5055117;28;20494;-81
2021/05/26 05:17:46;;;;;;;4.70;1.52;;;9.90;99.90;;;;;;5056478;28;20119;-80
2021/05/26 05:20:13;;;;;;;5.68;1.27;;;10.00;99.90;;;;;;5056490;28;20109;-80
2021/05/26 05:22:39;;;;;;;6.53;1.58;;;10.10;99.90;;;;;;5038626;28;20021;-81
2021/05/26 05:25:05;;;;;;;6.40;1.60;;;10.10;99.90;;;;;;5038567;28;20021;-80
2021/05/26 05:27:31;;;;;;;4.13;1.45;;;10.20;99.90;;;;;;5038448;28;20482;-80
2021/05/26 05:29:56;;;;;;;4.47;1.30;;;10.00;99.90;;;;;;5038476;28;20029;-80
2021/05/26 05:32:22;;;;;;;4.35;1.45;;;10.10;99.90;;;;;;5038448;28;20102;-81
2021/05/26 05:34:48;;;;;;;3.85;1.20;;;10.10;99.90;;;;;;5056798;28;20025;-80
2021/05/26 05:37:13;;;;;;;3.55;1.42;;;10.30;99.90;;;;;;5056120;28;20168;-81
2021/05/26 05:39:39;;;;;;;3.63;1.08;;;10.20;99.90;;;;;;5038304;28;20021;-81
2021/05/26 05:42:05;;;;;;;6.10;1.40;;;9.90;99.90;;;;;;5056108;28;20028;-81
2021/05/26 05:44:31;;;;;;;3.47;1.33;;;10.10;99.90;;;;;;5056071;28;20075;-81
2021/05/26 05:46:56;;;;;;;4.53;1.10;;;9.80;99.90;;;;;;5055813;28;20465;-80
2021/05/26 05:49:22;;;;;;;4.95;1.10;;;9.70;99.90;;;;;;5038062;28;20044;-80
2021/05/26 05:51:48;;;;;;;10.48;1.60;;;9.80;99.90;;;;;;5055760;28;20054;-81
2021/05/26 05:54:13;;;;;;;10.77;1.45;;;9.70;99.90;;;;;;5055912;28;20036;-80
2021/05/26 05:56:39;;;;;;;4.68;1.40;;;9.70;99.90;;;;;;5037959;28;20075;-80
2021/05/26 05:59:05;;;;;;;5.22;1.23;;;9.70;99.90;;;;;;5037995;28;20056;-80
2021/05/26 06:01:32;;;;;;;6.03;1.50;;;9.70;99.90;;;;;;5056232;28;20476;-80
2021/05/26 06:03:57;;;;;;;4.97;1.40;;;10.00;99.90;;;;;;5037845;28;20021;-81
2021/05/26 06:06:23;;;;;;;5.28;1.45;;;10.00;99.90;;;;;;5037824;28;20036;-81
2021/05/26 06:08:49;;;;;;;3.22;1.27;;;10.00;99.90;;;;;;5055625;28;20060;-81
2021/05/26 06:11:14;;;;;;;5.75;1.45;;;10.20;99.90;;;;;;5037650;28;20450;-81
2021/05/26 06:13:42;;;;;;;6.30;1.45;;;10.20;99.90;;;;;;5037689;28;20025;-81
2021/05/26 06:16:08;;;;;;;5.22;1.55;;;10.30;99.90;;;;;;5055688;28;20024;-80
2021/05/26 06:18:33;;;;;;;5.15;1.58;;;10.20;99.90;;;;;;5055492;28;20032;-81
2021/05/26 06:20:59;;;;;;;3.38;1.15;;;10.20;99.90;;;;;;5055943;28;20151;-80
2021/05/26 06:23:25;;;;;;;5.05;1.30;;;10.00;99.90;;;;;;5055937;28;20021;-80
2021/05/26 06:25:50;;;;;;;3.60;1.20;;;10.00;99.90;;;;;;5055029;28;20021;-80
2021/05/26 06:28:16;;;;;;;4.80;1.42;;;10.10;99.90;;;;;;5055205;28;20489;-80
2021/05/26 06:30:42;;;;;;;5.30;1.52;;;9.90;99.90;;;;;;5037241;28;20546;-80
2021/05/26 06:33:07;;;;;;;7.22;1.65;;;10.10;99.90;;;;;;5055136;28;20078;-80
2021/05/26 06:35:33;;;;;;;5.50;1.33;;;10.20;99.90;;;;;;5037206;28;20119;-80
2021/05/26 06:37:59;;;;;;;4.32;1.30;;;10.30;99.90;;;;;;5054960;28;20025;-80
2021/05/26 06:40:24;;;;;;;5.30;1.70;;;10.30;99.90;;;;;;5055056;28;20096;-80
2021/05/26 06:42:50;;;;;;;3.88;1.27;;;10.20;99.90;;;;;;5037101;28;20172;-80
2021/05/26 06:45:16;;;;;;;6.18;1.20;;;10.10;99.90;;;;;;5037093;28;20021;-80
2021/05/26 06:47:42;;;;;;;5.93;1.40;;;10.10;99.90;;;;;;5054855;28;20075;-80
2021/05/26 06:50:08;;;;;;;2.13;1.10;;;10.40;99.90;;;;;;5054676;28;20423;-80
2021/05/26 06:52:34;;;;;;;7.95;1.65;;;10.50;99.90;;;;;;5036918;28;20061;-80
2021/05/26 06:55:00;;;;;;;4.68;1.45;;;10.70;99.90;;;;;;5055012;28;20049;-80
2021/05/26 06:57:25;;;;;;;3.28;1.13;;;10.80;99.90;;;;;;5054913;28;20087;-80
2021/05/26 06:59:51;;;;;;;5.40;1.50;;;10.80;99.90;;;;;;5036783;28;20056;-79
2021/05/26 07:02:17;;;;;;;5.43;1.58;;;10.70;99.90;;;;;;5036658;28;20079;-80
2021/05/26 07:04:42;;;;;;;4.10;1.35;;;10.70;99.90;;;;;;5036727;28;20074;-80
2021/05/26 07:07:08;;;;;;;5.05;1.40;;;10.50;99.90;;;;;;5054796;28;20021;-80
2021/05/26 07:09:34;;;;;;;5.40;1.13;;;10.40;99.90;;;;;;5054506;28;20021;-80
2021/05/26 07:11:59;;;;;;;5.95;1.42;;;10.50;99.90;;;;;;5054409;28;20033;-81
2021/05/26 07:14:25;;;;;;;5.20;1.63;;;10.60;99.90;;;;;;5054376;28;20033;-81
2021/05/26 07:16:51;;;;;;;4.95;1.48;;;10.60;99.90;;;;;;5054223;28;20017;-80
2021/05/26 07:19:16;;;;;;;4.53;1.42;;;10.70;99.90;;;;;;5054294;28;20029;-80
2021/05/26 07:21:43;;;;;;;5.22;1.33;;;10.70;99.90;;;;;;5036656;28;20021;-79
2021/05/26 07:24:09;;;;;;;3.53;1.33;;;10.50;99.90;;;;;;5036342;28;20021;-80
2021/05/26 07:26:34;;;;;;;7.53;1.88;;;10.60;99.90;;;;;;5036284;28;20032;-80
2021/05/26 07:29:00;;;;;;;6.82;1.73;;;10.50;99.90;;;;;;5054317;28;20074;-80
2021/05/26 07:31:26;;;;;;;8.13;1.92;;;10.70;99.90;;;;;;5036183;28;20061;-80
2021/05/26 07:33:52;;;;;;;7.25;1.85;;;10.70;99.90;;;;;;5054000;28;20075;-80
2021/05/26 07:36:19;;;;;;;11.15;1.73;;;10.80;99.90;;;;;;5053998;28;20025;-80
2021/05/26 07:38:44;;;;;;;7.38;2.30;;;10.70;99.90;;;;;;5053439;28;20476;-80
2021/05/26 07:41:10;;;;;;;9.77;1.98;;;10.80;99.90;;;;;;5053859;28;20021;-80
2021/05/26 07:43:36;;;;;;;7.47;2.25;;;10.90;99.90;;;;;;5035996;28;20032;-80
2021/05/26 07:46:03;;;;;;;5.70;1.70;;;10.90;99.90;;;;;;5035846;28;20055;-80
2021/05/26 07:48:30;;;;;;;7.03;2.22;;;11.00;99.90;;;;;;5053781;28;20013;-80
2021/05/26 07:50:56;;;;;;;7.43;1.70;;;10.80;99.90;;;;;;5053690;28;20047;-80
2021/05/26 07:53:22;;;;;;;9.30;2.00;;;10.80;99.90;;;;;;5035723;28;20024;-81
2021/05/26 07:55:48;;;;;;;7.65;1.50;;;10.80;99.90;;;;;;5053962;28;20052;-81
2021/05/26 07:58:14;;;;;;;9.93;1.92;;;10.80;99.90;;;;;;5035616;28;20036;-80
2021/05/26 08:00:39;;;;;;;6.65;1.77;;;10.80;99.90;;;;;;5035735;28;20028;-80
2021/05/26 08:03:06;;;;;;;6.28;1.95;;;10.80;99.90;;;;;;5036053;28;20032;-80
2021/05/26 08:05:32;;;;;;;5.45;1.70;;;10.90;99.90;;;;;;5053708;28;20017;-80
2021/05/26 08:07:58;;;;;;;6.80;2.22;;;10.80;99.90;;;;;;5035585;28;20028;-82
2021/05/26 08:10:24;;;;;;;9.40;2.47;;;10.70;99.90;;;;;;5053550;28;20075;-80
2021/05/26 08:12:49;;;;;;;6.88;1.70;;;10.80;99.90;;;;;;5035599;28;20068;-81
2021/05/26 08:15:16;;;;;;;10.32;2.05;;;10.90;99.90;;;;;;5035471;28;20040;-81
2021/05/26 08:17:43;;;;;;;8.18;2.22;;;11.00;99.90;;;;;;5053393;28;20503;-80
2021/05/26 08:20:09;;;;;;;10.48;2.38;;;10.80;99.90;;;;;;5035462;28;20021;-80
2021/05/26 08:22:35;;;;;;;6.50;1.83;;;10.50;99.90;;;;;;5053895;28;20017;-81
2021/05/26 08:25:02;;;;;;;7.25;2.20;;;10.40;99.90;;;;;;5035402;28;20021;-80
2021/05/26 08:27:28;;;;;;;6.28;2.10;;;10.40;99.90;;;;;;5053240;28;20415;-81
2021/05/26 08:29:56;;;;;;;8.57;1.88;;;10.50;99.90;;;;;;5035606;28;20025;-82
2021/05/26 08:32:22;;;;;;;9.55;2.03;;;10.50;99.90;;;;;;5035409;28;20159;-80
2021/05/26 08:34:49;;;;;;;4.45;1.63;;;10.50;99.90;;;;;;5035353;28;20086;-79
2021/05/26 08:37:16;;;;;;;4.90;1.38;;;10.60;99.90;;;;;;5053149;28;20112;-79
2021/05/26 08:39:42;;;;;;;9.27;1.60;;;10.30;99.90;;;;;;5053188;28;20384;-80
2021/05/26 08:42:09;;;;;;;7.63;1.75;;;10.20;99.90;;;;;;5053231;28;20558;-79
2021/05/26 08:44:35;;;;;;;11.63;1.90;;;10.20;99.90;;;;;;5035251;28;20116;-79
2021/05/26 08:47:03;;;;;;;5.25;1.65;;;10.30;99.90;;;;;;5053004;28;20056;-80
2021/05/26 08:49:30;;;;;;;4.10;1.38;;;10.40;99.90;;;;;;5038114;28;20503;-80
2021/05/26 08:52:01;;;;;;;6.18;1.65;;;10.50;99.90;;;;;;5057039;28;20041;-79
2021/05/26 08:54:26;;;;;;;5.93;1.75;;;10.60;99.90;;;;;;5039283;28;20051;-79
2021/05/26 08:56:52;;;;;;;5.97;1.98;;;10.60;99.90;;;;;;5039075;28;20033;-79
2021/05/26 08:59:18;;;;;;;4.82;1.80;;;10.60;99.90;;;;;;5039185;28;20021;-80
2021/05/26 09:01:48;;;;;;;7.97;2.42;;;10.60;99.90;;;;;;5039097;28;20111;-79
2021/05/26 09:04:30;;;;;;;8.05;1.98;;;10.60;99.90;;;;;;5039013;28;20043;-79
2021/05/26 09:07:09;;;;;;;7.93;1.75;;;10.60;99.90;;;;;;5056847;28;20063;-79
2021/05/26 09:10:00;;;;;;;6.53;2.17;;;10.60;99.90;;;;;;5056870;28;20025;-79
2021/05/26 09:12:36;;;;;;;4.53;1.70;;;10.60;99.90;;;;;;5038974;28;20043;-79
2021/05/26 09:15:17;;;;;;;5.75;1.48;;;10.70;99.90;;;;;;5038852;28;20085;-79
2021/05/26 09:17:48;;;;;;;8.07;1.60;;;10.70;99.90;;;;;;5038743;28;20422;-78
2021/05/26 09:20:29;;;;;;;6.65;1.80;;;10.50;99.90;;;;;;5056557;28;20025;-79
2021/05/26 09:23:10;;;;;;;5.80;1.58;;;10.50;99.90;;;;;;5056547;28;20370;-78
2021/05/26 09:25:51;;;;;;;6.80;2.30;;;10.70;99.90;;;;;;5056482;28;20070;-79
2021/05/26 09:28:23;;;;;;;11.68;3.00;;;10.50;99.90;;;;;;5056714;28;20076;-79
2021/05/26 09:30:51;;;;;;;3.85;1.58;;;10.50;99.90;;;;;;5056377;28;20100;-79
2021/05/26 09:33:30;;;;;;;5.70;1.80;;;10.60;99.90;;;;;;5038427;28;20484;-79
2021/05/26 09:36:14;;;;;;;7.85;1.42;;;10.60;99.90;;;;;;5056277;28;20025;-81
2021/05/26 09:38:50;;;;;;;3.90;1.20;;;10.50;99.90;;;;;;5056297;28;20051;-79
2021/05/26 09:41:21;;;;;;;3.70;1.35;;;10.40;99.90;;;;;;5038237;28;20074;-79
2021/05/26 09:43:55;;;;;;;4.18;1.20;;;10.50;99.90;;;;;;5038300;28;20529;-79
2021/05/26 09:46:26;;;;;;;2.78;1.10;;;10.50;99.90;;;;;;5055986;28;20026;-79
2021/05/26 09:49:02;;;;;;;2.55;1.13;;;10.70;99.90;;;;;;5055992;28;20025;-79
2021/05/26 09:51:30;;;;;;;3.92;1.48;;;10.80;99.90;;;;;;5055946;28;20049;-79
2021/05/26 09:54:09;;;;;;;3.60;1.73;;;10.80;99.90;;;;;;5055902;28;20020;-80
2021/05/26 09:56:35;;;;;;;4.80;1.38;;;10.80;99.90;;;;;;5056084;28;20033;-79
2021/05/26 09:59:02;;;;;;;2.92;1.35;;;10.80;99.90;;;;;;5037956;28;20370;-81
2021/05/26 10:01:30;;;;;;;3.30;1.40;;;10.80;99.90;;;;;;5037243;28;20052;-81
2021/05/26 10:03:55;;;;;;;2.00;0.75;;;10.70;99.90;;;;;;5037879;28;20024;-81
2021/05/26 10:06:24;;;;;;;2.40;1.08;;;10.70;99.90;;;;;;5037890;28;20032;-82
2021/05/26 10:08:50;;;;;;;4.75;1.50;;;10.60;99.90;;;;;;5037714;28;20036;-83
2021/05/26 10:11:17;;;;;;;5.50;1.02;;;10.80;99.90;;;;;;5055612;28;20025;-81
2021/05/26 10:13:45;;;;;;;3.75;1.20;;;10.80;99.90;;;;;;5055596;28;20108;-83
2021/05/26 10:16:20;;;;;;;3.08;1.00;;;10.70;99.90;;;;;;5055514;28;20036;-81
2021/05/26 10:18:47;;;;;;;3.75;1.02;;;10.70;99.90;;;;;;5037732;28;20037;-83
2021/05/26 10:21:21;;;;;;;2.75;1.17;;;10.80;99.90;;;;;;5037581;28;20025;-80
2021/05/26 10:23:51;;;;;;;1.65;0.75;;;10.80;99.90;;;;;;5037536;28;20032;-83
2021/05/26 10:26:50;;;;;;;5.68;1.00;;;10.80;99.90;;;;;;5055551;28;20029;-82
2021/05/26 10:29:33;;;;;;;1.67;0.88;;;11.10;99.90;;;;;;5037102;28;20032;-81
2021/05/26 10:32:24;;;;;;;2.67;1.00;;;11.20;99.90;;;;;;5055634;28;20516;-82
2021/05/26 10:34:51;;;;;;;2.85;1.00;;;11.00;99.90;;;;;;5037257;28;20025;-82
2021/05/26 10:37:28;;;;;;;4.15;1.00;;;11.00;99.90;;;;;;5037253;28;20028;-82
2021/05/26 10:39:54;;;;;;;3.25;1.13;;;10.90;99.90;;;;;;5055077;28;20045;-82
2021/05/26 10:42:31;;;;;;;4.50;1.10;;;11.00;99.90;;;;;;5037177;28;20021;-82
2021/05/26 10:45:05;;;;;;;3.92;1.20;;;10.90;99.90;;;;;;5037024;28;20021;-81
2021/05/26 10:47:37;;;;;;;3.72;1.02;;;10.90;99.90;;;;;;5037081;28;20095;-81
2021/05/26 10:50:25;;;;;;;7.03;1.80;;;11.00;99.90;;;;;;5036977;28;20051;-82
2021/05/26 10:52:57;;;;;;;3.13;1.10;;;11.20;99.90;;;;;;5036952;28;20120;-81
2021/05/26 10:55:36;;;;;;;3.90;1.33;;;11.00;99.90;;;;;;5036825;28;20025;-82
2021/05/26 10:58:25;;;;;;;2.45;1.05;;;11.10;99.90;;;;;;5036825;28;20397;-82
2021/05/26 11:00:59;;;;;;;2.80;1.27;;;11.20;99.90;;;;;;5036885;28;20070;-80
2021/05/26 11:03:25;;;;;;;3.72;1.00;;;11.30;99.90;;;;;;5036729;28;20025;-83
2021/05/26 11:05:52;;;;;;;4.43;1.10;;;11.40;99.90;;;;;;5036752;28;20039;-81
2021/05/26 11:08:43;;;;;;;3.25;1.20;;;11.40;99.90;;;;;;5054869;28;20035;-83
2021/05/26 11:11:29;;;;;;;1.52;0.90;;;11.40;99.90;;;;;;5036366;28;20546;-81
2021/05/26 11:14:07;;;;;;;5.95;1.35;;;11.40;99.90;;;;;;5036182;28;20017;-82
2021/05/26 11:16:44;;;;;;;1.33;0.70;;;11.80;99.90;;;;;;5036591;28;20032;-83
2021/05/26 11:19:27;;;;;;;1.67;0.82;;;11.70;99.90;;;;;;5036417;28;20393;-83
2021/05/26 11:22:03;;;;;;;2.45;0.80;;;11.80;99.90;;;;;;5036510;28;20045;-82
2021/05/26 11:24:33;;;;;;;1.88;1.02;;;11.60;99.90;;;;;;5037170;28;20035;-82
2021/05/26 11:27:12;;;;;;;2.40;0.90;;;11.90;99.90;;;;;;5036238;28;20035;-82
2021/05/26 11:29:38;;;;;;;4.57;1.17;;;12.10;99.90;;;;;;5036445;28;20092;-80
2021/05/26 11:32:11;;;;;;;2.15;1.00;;;12.30;99.90;;;;;;5054111;28;20036;-83
2021/05/26 11:34:47;;;;;;;3.53;1.02;;;12.20;99.90;;;;;;5091636;28;20390;-82
2021/05/26 11:37:37;;;;;;;3.35;1.00;;;12.30;99.90;;;;;;5089573;28;20028;-81
2021/05/26 11:40:17;;;;;;;2.17;0.75;;;12.20;99.90;;;;;;5091129;28;20463;-83
2021/05/26 11:42:43;;;;;;;3.63;0.90;;;12.00;99.90;;;;;;5089404;28;20032;-82
2021/05/26 11:45:11;;;;;;;2.28;0.90;;;12.20;99.90;;;;;;5089503;28;20028;-82
2021/05/26 11:47:46;;;;;;;5.00;1.00;;;12.20;99.90;;;;;;5089769;28;20059;-89
2021/05/26 11:50:15;;;;;;;2.28;0.93;;;12.10;99.90;;;;;;5089517;28;20031;-81
2021/05/26 11:52:41;;;;;;;1.92;1.00;;;12.30;99.90;;;;;;5089403;28;20037;-84
2021/05/26 11:55:08;;;;;;;2.63;0.85;;;12.30;99.90;;;;;;5089419;28;20115;-83
2021/05/26 11:57:35;;;;;;;2.80;1.05;;;12.40;99.90;;;;;;5089316;28;20032;-84
2021/05/26 12:00:04;;;;;;;3.83;1.00;;;12.40;99.90;;;;;;5089337;28;20028;-83
2021/05/26 12:02:30;;;;;;;4.60;1.20;;;12.70;99.90;;;;;;5089127;28;20020;-81
2021/05/26 12:04:56;;;;;;;2.08;0.80;;;12.80;99.90;;;;;;5089291;28;20036;-81
2021/05/26 12:07:24;;;;;;;2.67;1.00;;;12.70;99.90;;;;;;5089039;28;20388;-82
2021/05/26 12:09:57;;;;;;;5.38;1.08;;;12.70;99.90;;;;;;5089021;28;20020;-82
2021/05/26 12:12:23;;;;;;;4.00;1.33;;;13.00;99.90;;;;;;5088850;28;20029;-80
2021/05/26 12:14:50;;;;;;;3.67;0.80;;;12.90;99.90;;;;;;5088839;28;20119;-83
2021/05/26 12:17:17;;;;;;;3.28;1.30;;;12.80;99.90;;;;;;5088804;28;20032;-81
2021/05/26 12:19:45;;;;;;;1.45;0.82;;;12.90;99.90;;;;;;5090339;28;20069;-81
2021/05/26 12:22:17;;;;;;;4.07;0.88;;;12.70;99.90;;;;;;5088729;28;20020;-80
2021/05/26 12:24:54;;;;;;;2.17;0.90;;;12.50;99.90;;;;;;5089940;28;20016;-80
2021/05/26 12:27:49;;;;;;;3.03;1.25;;;12.50;99.90;;;;;;5089922;28;20021;-81
2021/05/26 12:30:22;;;;;;;2.63;1.00;;;12.30;99.90;;;;;;5084360;28;20124;-80
2021/05/26 12:32:53;;;;;;;1.80;0.90;;;12.10;99.90;;;;;;5088277;28;20522;-80
2021/05/26 12:35:25;;;;;;;4.22;1.00;;;12.10;99.90;;;;;;5088540;28;20495;-80
2021/05/26 12:37:55;;;;;;;3.78;1.10;;;12.10;99.90;;;;;;5088551;28;20129;-80
2021/05/26 12:40:30;;;;;;;4.38;1.10;;;12.10;99.90;;;;;;5088525;28;20029;-81
2021/05/26 12:42:58;;;;;;;4.38;1.13;;;12.20;99.90;;;;;;5088541;28;20085;-81
2021/05/26 12:45:30;;;;;;;2.38;1.00;;;12.10;99.90;;;;;;5078722;28;20028;-83
2021/05/26 12:47:58;;;;;;;3.05;1.38;;;12.20;99.90;;;;;;5074918;28;20175;-81
2021/05/26 12:50:28;;;;;;;2.03;0.98;;;12.20;99.90;;;;;;5074749;28;20028;-82
2021/05/26 12:53:11;;;;;;;4.00;1.38;;;12.10;99.90;;;;;;5074703;28;20391;-82